sensor_id;sensor_type;location;lat;lon;timestamp;P1;durP1;ratioP1;P2;durP2;ratioP2
65096;SDS011;51686;46.758;4.356;2023-06-22T00:01:15;8.35;;;4.40;;
65096;SDS011;51686;46.758;4.356;2023-06-22T00:04:02;9.52;;;4.60;;
65096;SDS011;51686;46.758;4.356;2023-06-22T00:06:49;8.88;;;4.60;;
65096;SDS011;51686;46.758;4.356;2023-06-22T00:09:36;9.10;;;4.25;;
65096;SDS011;51686;46.758;4.356;2023-06-22T00:12:23;9.48;;;4.38;;
65096;SDS011;51686;46.758;4.356;2023-06-22T00:15:10;8.10;;;4.32;;
65096;SDS011;51686;46.758;4.356;2023-06-22T00:17:57;9.00;;;4.47;;
65096;SDS011;51686;46.758;4.356;2023-06-22T00:20:45;9.05;;;4.47;;
65096;SDS011;51686;46.758;4.356;2023-06-22T00:23:33;9.33;;;4.57;;
65096;SDS011;51686;46.758;4.356;2023-06-22T00:26:21;8.43;;;4.50;;
65096;SDS011;51686;46.758;4.356;2023-06-22T00:29:08;8.32;;;4.00;;
65096;SDS011;51686;46.758;4.356;2023-06-22T00:31:55;9.30;;;4.45;;
65096;SDS011;51686;46.758;4.356;2023-06-22T00:34:42;8.88;;;4.60;;
65096;SDS011;51686;46.758;4.356;2023-06-22T00:37:29;8.60;;;4.18;;
65096;SDS011;51686;46.758;4.356;2023-06-22T00:40:16;8.40;;;4.38;;
65096;SDS011;51686;46.758;4.356;2023-06-22T00:43:04;9.80;;;4.63;;
65096;SDS011;51686;46.758;4.356;2023-06-22T00:45:52;9.18;;;4.75;;
65096;SDS011;51686;46.758;4.356;2023-06-22T00:48:39;9.52;;;4.90;;
65096;SDS011;51686;46.758;4.356;2023-06-22T00:51:30;9.45;;;4.90;;
65096;SDS011;51686;46.758;4.356;2023-06-22T00:54:17;8.80;;;4.63;;
65096;SDS011;51686;46.758;4.356;2023-06-22T00:57:14;10.10;;;5.03;;
65096;SDS011;51686;46.758;4.356;2023-06-22T01:00:04;8.77;;;4.57;;
65096;SDS011;51686;46.758;4.356;2023-06-22T01:02:56;9.00;;;4.78;;
65096;SDS011;51686;46.758;4.356;2023-06-22T01:05:43;9.00;;;4.68;;
65096;SDS011;51686;46.758;4.356;2023-06-22T01:11:54;8.40;;;4.40;;
65096;SDS011;51686;46.758;4.356;2023-06-22T01:14:47;8.77;;;4.20;;
65096;SDS011;51686;46.758;4.356;2023-06-22T01:17:39;9.70;;;4.85;;
65096;SDS011;51686;46.758;4.356;2023-06-22T01:20:28;8.75;;;4.38;;
65096;SDS011;51686;46.758;4.356;2023-06-22T01:23:20;8.68;;;4.50;;
65096;SDS011;51686;46.758;4.356;2023-06-22T01:29:23;10.60;;;4.53;;
65096;SDS011;51686;46.758;4.356;2023-06-22T01:34:59;8.55;;;4.53;;
65096;SDS011;51686;46.758;4.356;2023-06-22T01:37:47;8.23;;;4.32;;
65096;SDS011;51686;46.758;4.356;2023-06-22T01:40:34;9.38;;;4.82;;
65096;SDS011;51686;46.758;4.356;2023-06-22T01:43:22;9.35;;;4.75;;
65096;SDS011;51686;46.758;4.356;2023-06-22T01:46:10;9.07;;;4.82;;
65096;SDS011;51686;46.758;4.356;2023-06-22T01:48:58;9.10;;;5.10;;
65096;SDS011;51686;46.758;4.356;2023-06-22T01:51:45;8.40;;;4.55;;
65096;SDS011;51686;46.758;4.356;2023-06-22T01:54:32;9.40;;;4.45;;
65096;SDS011;51686;46.758;4.356;2023-06-22T01:57:19;8.90;;;4.88;;
65096;SDS011;51686;46.758;4.356;2023-06-22T02:00:11;8.70;;;4.85;;
65096;SDS011;51686;46.758;4.356;2023-06-22T02:02:59;10.20;;;4.90;;
65096;SDS011;51686;46.758;4.356;2023-06-22T02:05:54;9.60;;;4.43;;
65096;SDS011;51686;46.758;4.356;2023-06-22T02:08:47;9.32;;;4.95;;
65096;SDS011;51686;46.758;4.356;2023-06-22T02:11:37;8.50;;;4.45;;
65096;SDS011;51686;46.758;4.356;2023-06-22T02:14:27;8.88;;;4.55;;
65096;SDS011;51686;46.758;4.356;2023-06-22T02:17:14;9.13;;;4.90;;
65096;SDS011;51686;46.758;4.356;2023-06-22T02:20:02;9.40;;;4.78;;
65096;SDS011;51686;46.758;4.356;2023-06-22T02:22:52;9.82;;;5.28;;
65096;SDS011;51686;46.758;4.356;2023-06-22T02:25:39;8.85;;;4.90;;
65096;SDS011;51686;46.758;4.356;2023-06-22T02:28:26;8.02;;;4.15;;
65096;SDS011;51686;46.758;4.356;2023-06-22T02:31:13;9.95;;;4.90;;
65096;SDS011;51686;46.758;4.356;2023-06-22T02:34:00;9.48;;;4.90;;
65096;SDS011;51686;46.758;4.356;2023-06-22T02:36:47;9.20;;;5.00;;
65096;SDS011;51686;46.758;4.356;2023-06-22T02:39:38;9.15;;;4.68;;
65096;SDS011;51686;46.758;4.356;2023-06-22T02:42:25;9.57;;;5.03;;
65096;SDS011;51686;46.758;4.356;2023-06-22T02:45:12;9.05;;;4.85;;
65096;SDS011;51686;46.758;4.356;2023-06-22T02:47:59;10.20;;;4.97;;
65096;SDS011;51686;46.758;4.356;2023-06-22T02:50:46;9.13;;;5.00;;
65096;SDS011;51686;46.758;4.356;2023-06-22T02:53:33;8.70;;;4.93;;
65096;SDS011;51686;46.758;4.356;2023-06-22T02:56:20;9.70;;;4.93;;
65096;SDS011;51686;46.758;4.356;2023-06-22T02:59:11;9.48;;;5.43;;
65096;SDS011;51686;46.758;4.356;2023-06-22T03:01:58;9.30;;;5.10;;
65096;SDS011;51686;46.758;4.356;2023-06-22T03:04:45;9.98;;;5.18;;
65096;SDS011;51686;46.758;4.356;2023-06-22T03:07:35;9.75;;;5.25;;
65096;SDS011;51686;46.758;4.356;2023-06-22T03:10:23;9.70;;;5.50;;
65096;SDS011;51686;46.758;4.356;2023-06-22T03:13:10;11.27;;;5.75;;
65096;SDS011;51686;46.758;4.356;2023-06-22T03:15:57;9.45;;;5.25;;
65096;SDS011;51686;46.758;4.356;2023-06-22T03:18:44;9.75;;;5.70;;
65096;SDS011;51686;46.758;4.356;2023-06-22T03:21:31;10.85;;;5.97;;
65096;SDS011;51686;46.758;4.356;2023-06-22T03:24:18;11.05;;;6.35;;
65096;SDS011;51686;46.758;4.356;2023-06-22T03:27:05;10.80;;;5.85;;
65096;SDS011;51686;46.758;4.356;2023-06-22T03:29:52;9.93;;;5.78;;
65096;SDS011;51686;46.758;4.356;2023-06-22T03:32:39;10.02;;;5.85;;
65096;SDS011;51686;46.758;4.356;2023-06-22T03:35:26;10.95;;;6.10;;
65096;SDS011;51686;46.758;4.356;2023-06-22T03:38:13;9.73;;;5.93;;
65096;SDS011;51686;46.758;4.356;2023-06-22T03:41:00;10.18;;;6.03;;
65096;SDS011;51686;46.758;4.356;2023-06-22T03:43:47;10.20;;;6.40;;
65096;SDS011;51686;46.758;4.356;2023-06-22T03:46:34;11.65;;;5.78;;
65096;SDS011;51686;46.758;4.356;2023-06-22T03:49:21;10.27;;;5.38;;
65096;SDS011;51686;46.758;4.356;2023-06-22T03:52:08;11.00;;;5.90;;
65096;SDS011;51686;46.758;4.356;2023-06-22T03:54:57;10.23;;;5.30;;
65096;SDS011;51686;46.758;4.356;2023-06-22T03:57:44;10.55;;;5.38;;
65096;SDS011;51686;46.758;4.356;2023-06-22T04:00:34;10.18;;;5.50;;
65096;SDS011;51686;46.758;4.356;2023-06-22T04:03:21;9.82;;;5.68;;
65096;SDS011;51686;46.758;4.356;2023-06-22T04:06:08;9.32;;;5.25;;
65096;SDS011;51686;46.758;4.356;2023-06-22T04:08:55;9.77;;;5.40;;
65096;SDS011;51686;46.758;4.356;2023-06-22T04:11:42;9.88;;;5.55;;
65096;SDS011;51686;46.758;4.356;2023-06-22T04:14:28;9.73;;;5.03;;
65096;SDS011;51686;46.758;4.356;2023-06-22T04:17:15;10.40;;;5.57;;
65096;SDS011;51686;46.758;4.356;2023-06-22T04:22:54;9.45;;;5.20;;
65096;SDS011;51686;46.758;4.356;2023-06-22T04:25:41;9.35;;;5.00;;
65096;SDS011;51686;46.758;4.356;2023-06-22T04:28:28;8.88;;;5.20;;
65096;SDS011;51686;46.758;4.356;2023-06-22T04:31:15;8.65;;;4.90;;
65096;SDS011;51686;46.758;4.356;2023-06-22T04:34:05;10.05;;;5.30;;
65096;SDS011;51686;46.758;4.356;2023-06-22T04:36:54;10.93;;;5.97;;
65096;SDS011;51686;46.758;4.356;2023-06-22T04:39:42;10.00;;;5.70;;
65096;SDS011;51686;46.758;4.356;2023-06-22T04:42:29;10.27;;;5.90;;
65096;SDS011;51686;46.758;4.356;2023-06-22T04:45:17;10.32;;;5.55;;
65096;SDS011;51686;46.758;4.356;2023-06-22T04:48:04;10.77;;;6.03;;
65096;SDS011;51686;46.758;4.356;2023-06-22T04:50:51;9.60;;;5.78;;
65096;SDS011;51686;46.758;4.356;2023-06-22T04:53:38;10.52;;;5.60;;
65096;SDS011;51686;46.758;4.356;2023-06-22T04:56:27;9.68;;;5.18;;
65096;SDS011;51686;46.758;4.356;2023-06-22T04:59:15;9.82;;;5.30;;
65096;SDS011;51686;46.758;4.356;2023-06-22T05:02:02;9.68;;;5.38;;
65096;SDS011;51686;46.758;4.356;2023-06-22T05:04:49;9.57;;;5.45;;
65096;SDS011;51686;46.758;4.356;2023-06-22T05:07:38;9.80;;;5.40;;
65096;SDS011;51686;46.758;4.356;2023-06-22T05:10:34;9.98;;;5.03;;
65096;SDS011;51686;46.758;4.356;2023-06-22T05:13:20;9.35;;;5.13;;
65096;SDS011;51686;46.758;4.356;2023-06-22T05:16:08;8.80;;;4.65;;
65096;SDS011;51686;46.758;4.356;2023-06-22T05:18:55;9.40;;;5.18;;
65096;SDS011;51686;46.758;4.356;2023-06-22T05:21:42;9.45;;;5.40;;
65096;SDS011;51686;46.758;4.356;2023-06-22T05:24:29;9.25;;;5.35;;
65096;SDS011;51686;46.758;4.356;2023-06-22T05:27:16;9.77;;;5.38;;
65096;SDS011;51686;46.758;4.356;2023-06-22T05:30:03;9.15;;;4.93;;
65096;SDS011;51686;46.758;4.356;2023-06-22T05:32:53;10.13;;;5.25;;
65096;SDS011;51686;46.758;4.356;2023-06-22T05:35:40;10.15;;;5.15;;
65096;SDS011;51686;46.758;4.356;2023-06-22T05:38:28;9.87;;;5.47;;
65096;SDS011;51686;46.758;4.356;2023-06-22T05:41:14;8.90;;;4.63;;
65096;SDS011;51686;46.758;4.356;2023-06-22T05:44:01;8.60;;;4.63;;
65096;SDS011;51686;46.758;4.356;2023-06-22T05:46:48;8.95;;;5.10;;
65096;SDS011;51686;46.758;4.356;2023-06-22T05:49:36;8.77;;;4.63;;
65096;SDS011;51686;46.758;4.356;2023-06-22T05:52:23;9.75;;;5.00;;
65096;SDS011;51686;46.758;4.356;2023-06-22T05:55:10;9.32;;;5.20;;
65096;SDS011;51686;46.758;4.356;2023-06-22T05:57:57;8.98;;;4.95;;
65096;SDS011;51686;46.758;4.356;2023-06-22T06:00:44;9.75;;;5.30;;
65096;SDS011;51686;46.758;4.356;2023-06-22T06:03:31;8.60;;;4.65;;
65096;SDS011;51686;46.758;4.356;2023-06-22T06:06:18;9.50;;;5.20;;
65096;SDS011;51686;46.758;4.356;2023-06-22T06:09:07;10.48;;;5.25;;
65096;SDS011;51686;46.758;4.356;2023-06-22T06:11:54;9.15;;;5.22;;
65096;SDS011;51686;46.758;4.356;2023-06-22T06:14:41;9.00;;;5.07;;
65096;SDS011;51686;46.758;4.356;2023-06-22T06:17:28;10.25;;;5.57;;
65096;SDS011;51686;46.758;4.356;2023-06-22T06:20:19;9.80;;;5.15;;
65096;SDS011;51686;46.758;4.356;2023-06-22T06:23:09;9.93;;;5.47;;
65096;SDS011;51686;46.758;4.356;2023-06-22T06:25:56;9.20;;;5.50;;
65096;SDS011;51686;46.758;4.356;2023-06-22T06:28:44;9.63;;;5.03;;
65096;SDS011;51686;46.758;4.356;2023-06-22T06:31:31;9.18;;;5.03;;
65096;SDS011;51686;46.758;4.356;2023-06-22T06:34:18;9.57;;;5.25;;
65096;SDS011;51686;46.758;4.356;2023-06-22T06:37:05;9.13;;;5.28;;
65096;SDS011;51686;46.758;4.356;2023-06-22T06:39:52;9.70;;;5.40;;
65096;SDS011;51686;46.758;4.356;2023-06-22T06:42:43;9.52;;;5.13;;
65096;SDS011;51686;46.758;4.356;2023-06-22T06:45:32;9.68;;;5.10;;
65096;SDS011;51686;46.758;4.356;2023-06-22T06:48:21;8.88;;;4.90;;
65096;SDS011;51686;46.758;4.356;2023-06-22T06:51:08;9.07;;;5.32;;
65096;SDS011;51686;46.758;4.356;2023-06-22T06:53:56;11.05;;;5.70;;
65096;SDS011;51686;46.758;4.356;2023-06-22T06:56:42;8.95;;;5.03;;
65096;SDS011;51686;46.758;4.356;2023-06-22T06:59:34;9.10;;;5.22;;
65096;SDS011;51686;46.758;4.356;2023-06-22T07:02:21;9.43;;;4.90;;
65096;SDS011;51686;46.758;4.356;2023-06-22T07:05:09;9.20;;;4.97;;
65096;SDS011;51686;46.758;4.356;2023-06-22T07:07:56;8.93;;;4.83;;
65096;SDS011;51686;46.758;4.356;2023-06-22T07:10:43;9.68;;;5.18;;
65096;SDS011;51686;46.758;4.356;2023-06-22T07:13:30;9.02;;;5.20;;
65096;SDS011;51686;46.758;4.356;2023-06-22T07:16:17;9.55;;;5.07;;
65096;SDS011;51686;46.758;4.356;2023-06-22T07:19:05;9.38;;;5.20;;
65096;SDS011;51686;46.758;4.356;2023-06-22T07:21:54;9.40;;;5.22;;
65096;SDS011;51686;46.758;4.356;2023-06-22T07:24:41;9.98;;;4.97;;
65096;SDS011;51686;46.758;4.356;2023-06-22T07:27:29;9.35;;;4.93;;
65096;SDS011;51686;46.758;4.356;2023-06-22T07:30:21;9.63;;;5.18;;
65096;SDS011;51686;46.758;4.356;2023-06-22T07:33:08;9.88;;;4.93;;
65096;SDS011;51686;46.758;4.356;2023-06-22T07:35:55;10.38;;;4.72;;
65096;SDS011;51686;46.758;4.356;2023-06-22T07:38:42;8.50;;;4.65;;
65096;SDS011;51686;46.758;4.356;2023-06-22T07:41:29;9.10;;;4.80;;
65096;SDS011;51686;46.758;4.356;2023-06-22T07:44:17;10.13;;;4.70;;
65096;SDS011;51686;46.758;4.356;2023-06-22T07:47:04;9.20;;;4.60;;
65096;SDS011;51686;46.758;4.356;2023-06-22T07:49:51;8.10;;;4.50;;
65096;SDS011;51686;46.758;4.356;2023-06-22T07:52:38;8.40;;;4.30;;
65096;SDS011;51686;46.758;4.356;2023-06-22T07:55:25;8.02;;;4.57;;
65096;SDS011;51686;46.758;4.356;2023-06-22T07:58:12;8.18;;;4.43;;
65096;SDS011;51686;46.758;4.356;2023-06-22T08:00:59;8.68;;;4.50;;
65096;SDS011;51686;46.758;4.356;2023-06-22T08:03:49;9.48;;;4.82;;
65096;SDS011;51686;46.758;4.356;2023-06-22T08:06:36;8.57;;;4.43;;
65096;SDS011;51686;46.758;4.356;2023-06-22T08:09:22;8.60;;;4.20;;
65096;SDS011;51686;46.758;4.356;2023-06-22T08:12:09;8.82;;;4.53;;
65096;SDS011;51686;46.758;4.356;2023-06-22T08:14:57;9.18;;;4.25;;
65096;SDS011;51686;46.758;4.356;2023-06-22T08:17:44;8.13;;;4.03;;
65096;SDS011;51686;46.758;4.356;2023-06-22T08:20:32;9.10;;;4.25;;
65096;SDS011;51686;46.758;4.356;2023-06-22T08:23:20;8.45;;;4.10;;
65096;SDS011;51686;46.758;4.356;2023-06-22T08:26:06;8.40;;;4.18;;
65096;SDS011;51686;46.758;4.356;2023-06-22T08:28:53;8.05;;;3.60;;
65096;SDS011;51686;46.758;4.356;2023-06-22T08:31:41;8.30;;;3.90;;
65096;SDS011;51686;46.758;4.356;2023-06-22T08:34:28;8.25;;;4.43;;
65096;SDS011;51686;46.758;4.356;2023-06-22T08:37:15;7.90;;;3.90;;
65096;SDS011;51686;46.758;4.356;2023-06-22T08:40:03;8.95;;;3.83;;
65096;SDS011;51686;46.758;4.356;2023-06-22T08:42:57;8.30;;;3.80;;
65096;SDS011;51686;46.758;4.356;2023-06-22T08:45:44;8.30;;;3.63;;
65096;SDS011;51686;46.758;4.356;2023-06-22T08:48:32;9.73;;;4.13;;
65096;SDS011;51686;46.758;4.356;2023-06-22T08:51:19;8.23;;;3.90;;
65096;SDS011;51686;46.758;4.356;2023-06-22T08:54:06;7.50;;;3.70;;
65096;SDS011;51686;46.758;4.356;2023-06-22T08:56:52;8.45;;;4.05;;
65096;SDS011;51686;46.758;4.356;2023-06-22T08:59:39;9.63;;;3.88;;
65096;SDS011;51686;46.758;4.356;2023-06-22T09:02:27;8.53;;;3.50;;
65096;SDS011;51686;46.758;4.356;2023-06-22T09:05:18;9.25;;;3.70;;
65096;SDS011;51686;46.758;4.356;2023-06-22T09:08:05;8.82;;;4.05;;
65096;SDS011;51686;46.758;4.356;2023-06-22T09:10:52;8.10;;;3.53;;
65096;SDS011;51686;46.758;4.356;2023-06-22T09:13:39;8.35;;;3.88;;
65096;SDS011;51686;46.758;4.356;2023-06-22T09:16:26;7.75;;;3.40;;
65096;SDS011;51686;46.758;4.356;2023-06-22T09:19:13;7.82;;;3.53;;
65096;SDS011;51686;46.758;4.356;2023-06-22T09:22:00;8.60;;;3.83;;
65096;SDS011;51686;46.758;4.356;2023-06-22T09:24:47;7.93;;;3.72;;
65096;SDS011;51686;46.758;4.356;2023-06-22T09:27:33;8.00;;;3.72;;
65096;SDS011;51686;46.758;4.356;2023-06-22T09:30:21;8.82;;;4.40;;
65096;SDS011;51686;46.758;4.356;2023-06-22T09:33:08;8.38;;;3.75;;
65096;SDS011;51686;46.758;4.356;2023-06-22T09:35:55;7.85;;;3.53;;
65096;SDS011;51686;46.758;4.356;2023-06-22T09:38:42;8.47;;;3.90;;
65096;SDS011;51686;46.758;4.356;2023-06-22T09:41:29;8.35;;;3.80;;
65096;SDS011;51686;46.758;4.356;2023-06-22T09:44:16;8.20;;;3.88;;
65096;SDS011;51686;46.758;4.356;2023-06-22T09:47:03;8.00;;;3.97;;
65096;SDS011;51686;46.758;4.356;2023-06-22T09:49:50;9.82;;;4.28;;
65096;SDS011;51686;46.758;4.356;2023-06-22T09:52:37;8.90;;;3.85;;
65096;SDS011;51686;46.758;4.356;2023-06-22T09:55:27;7.30;;;3.65;;
65096;SDS011;51686;46.758;4.356;2023-06-22T09:58:14;7.50;;;3.50;;
65096;SDS011;51686;46.758;4.356;2023-06-22T10:01:01;7.72;;;3.55;;
65096;SDS011;51686;46.758;4.356;2023-06-22T10:03:48;7.22;;;3.50;;
65096;SDS011;51686;46.758;4.356;2023-06-22T10:06:35;8.43;;;4.03;;
65096;SDS011;51686;46.758;4.356;2023-06-22T10:09:22;9.30;;;3.80;;
65096;SDS011;51686;46.758;4.356;2023-06-22T10:12:09;7.82;;;3.58;;
65096;SDS011;51686;46.758;4.356;2023-06-22T10:14:55;7.88;;;3.90;;
65096;SDS011;51686;46.758;4.356;2023-06-22T10:17:43;7.73;;;3.90;;
65096;SDS011;51686;46.758;4.356;2023-06-22T10:20:30;8.95;;;3.40;;
65096;SDS011;51686;46.758;4.356;2023-06-22T10:23:17;9.25;;;3.80;;
65096;SDS011;51686;46.758;4.356;2023-06-22T10:26:04;7.97;;;3.85;;
65096;SDS011;51686;46.758;4.356;2023-06-22T10:28:51;7.47;;;3.55;;
65096;SDS011;51686;46.758;4.356;2023-06-22T10:31:58;7.97;;;3.90;;
65096;SDS011;51686;46.758;4.356;2023-06-22T10:34:45;8.90;;;4.00;;
65096;SDS011;51686;46.758;4.356;2023-06-22T10:37:32;8.40;;;4.18;;
65096;SDS011;51686;46.758;4.356;2023-06-22T10:40:19;7.78;;;3.67;;
65096;SDS011;51686;46.758;4.356;2023-06-22T10:43:06;8.02;;;3.92;;
65096;SDS011;51686;46.758;4.356;2023-06-22T10:45:53;8.13;;;3.90;;
65096;SDS011;51686;46.758;4.356;2023-06-22T10:48:40;7.35;;;3.58;;
65096;SDS011;51686;46.758;4.356;2023-06-22T10:51:26;9.25;;;3.80;;
65096;SDS011;51686;46.758;4.356;2023-06-22T10:54:14;7.70;;;3.60;;
65096;SDS011;51686;46.758;4.356;2023-06-22T10:57:04;8.65;;;3.55;;
65096;SDS011;51686;46.758;4.356;2023-06-22T10:59:51;8.43;;;3.88;;
65096;SDS011;51686;46.758;4.356;2023-06-22T11:02:38;8.13;;;3.78;;
65096;SDS011;51686;46.758;4.356;2023-06-22T11:05:25;9.00;;;3.70;;
65096;SDS011;51686;46.758;4.356;2023-06-22T11:08:13;7.50;;;3.53;;
65096;SDS011;51686;46.758;4.356;2023-06-22T11:11:00;7.60;;;3.65;;
65096;SDS011;51686;46.758;4.356;2023-06-22T11:13:46;8.07;;;3.42;;
65096;SDS011;51686;46.758;4.356;2023-06-22T11:16:34;8.43;;;3.73;;
65096;SDS011;51686;46.758;4.356;2023-06-22T11:19:21;8.23;;;3.80;;
65096;SDS011;51686;46.758;4.356;2023-06-22T11:22:08;9.00;;;3.65;;
65096;SDS011;51686;46.758;4.356;2023-06-22T11:24:55;7.70;;;3.67;;
65096;SDS011;51686;46.758;4.356;2023-06-22T11:27:41;7.90;;;3.67;;
65096;SDS011;51686;46.758;4.356;2023-06-22T11:30:28;9.18;;;3.65;;
65096;SDS011;51686;46.758;4.356;2023-06-22T11:33:16;8.25;;;3.25;;
65096;SDS011;51686;46.758;4.356;2023-06-22T11:36:03;8.30;;;3.40;;
65096;SDS011;51686;46.758;4.356;2023-06-22T11:38:50;8.40;;;3.60;;
65096;SDS011;51686;46.758;4.356;2023-06-22T11:41:38;8.23;;;3.30;;
65096;SDS011;51686;46.758;4.356;2023-06-22T11:44:24;7.35;;;3.28;;
65096;SDS011;51686;46.758;4.356;2023-06-22T11:47:11;7.93;;;3.42;;
65096;SDS011;51686;46.758;4.356;2023-06-22T11:49:58;7.22;;;3.13;;
65096;SDS011;51686;46.758;4.356;2023-06-22T11:52:45;8.27;;;3.10;;
65096;SDS011;51686;46.758;4.356;2023-06-22T11:55:32;8.77;;;3.60;;
65096;SDS011;51686;46.758;4.356;2023-06-22T11:58:19;7.30;;;3.03;;
65096;SDS011;51686;46.758;4.356;2023-06-22T12:01:06;8.40;;;3.45;;
65096;SDS011;51686;46.758;4.356;2023-06-22T12:03:53;8.10;;;3.05;;
65096;SDS011;51686;46.758;4.356;2023-06-22T12:06:40;7.60;;;3.60;;
65096;SDS011;51686;46.758;4.356;2023-06-22T12:09:29;7.30;;;3.38;;
65096;SDS011;51686;46.758;4.356;2023-06-22T12:12:16;9.68;;;3.67;;
65096;SDS011;51686;46.758;4.356;2023-06-22T12:15:03;8.48;;;3.40;;
65096;SDS011;51686;46.758;4.356;2023-06-22T12:17:50;8.00;;;3.13;;
65096;SDS011;51686;46.758;4.356;2023-06-22T12:20:37;7.82;;;3.33;;
65096;SDS011;51686;46.758;4.356;2023-06-22T12:23:24;7.68;;;2.83;;
65096;SDS011;51686;46.758;4.356;2023-06-22T12:26:11;9.55;;;3.05;;
65096;SDS011;51686;46.758;4.356;2023-06-22T12:28:58;10.07;;;3.60;;
65096;SDS011;51686;46.758;4.356;2023-06-22T12:31:45;7.90;;;3.05;;
65096;SDS011;51686;46.758;4.356;2023-06-22T12:34:32;8.32;;;3.20;;
65096;SDS011;51686;46.758;4.356;2023-06-22T12:37:19;8.55;;;3.20;;
65096;SDS011;51686;46.758;4.356;2023-06-22T12:40:06;9.10;;;3.42;;
65096;SDS011;51686;46.758;4.356;2023-06-22T12:42:53;8.85;;;3.15;;
65096;SDS011;51686;46.758;4.356;2023-06-22T12:45:40;9.57;;;3.45;;
65096;SDS011;51686;46.758;4.356;2023-06-22T12:48:27;10.63;;;3.20;;
65096;SDS011;51686;46.758;4.356;2023-06-22T12:51:20;6.97;;;2.60;;
65096;SDS011;51686;46.758;4.356;2023-06-22T12:54:08;7.95;;;3.05;;
65096;SDS011;51686;46.758;4.356;2023-06-22T12:56:56;8.13;;;3.07;;
65096;SDS011;51686;46.758;4.356;2023-06-22T12:59:43;9.45;;;3.38;;
65096;SDS011;51686;46.758;4.356;2023-06-22T13:02:30;9.40;;;3.92;;
65096;SDS011;51686;46.758;4.356;2023-06-22T13:05:17;8.97;;;4.23;;
65096;SDS011;51686;46.758;4.356;2023-06-22T13:08:04;10.13;;;3.60;;
65096;SDS011;51686;46.758;4.356;2023-06-22T13:10:51;8.70;;;3.55;;
65096;SDS011;51686;46.758;4.356;2023-06-22T13:13:39;7.70;;;3.63;;
65096;SDS011;51686;46.758;4.356;2023-06-22T13:16:26;8.15;;;3.40;;
65096;SDS011;51686;46.758;4.356;2023-06-22T13:19:13;12.00;;;4.05;;
65096;SDS011;51686;46.758;4.356;2023-06-22T13:22:00;8.07;;;3.53;;
65096;SDS011;51686;46.758;4.356;2023-06-22T13:24:49;8.73;;;3.55;;
65096;SDS011;51686;46.758;4.356;2023-06-22T13:27:42;7.87;;;2.93;;
65096;SDS011;51686;46.758;4.356;2023-06-22T13:30:31;8.25;;;3.13;;
65096;SDS011;51686;46.758;4.356;2023-06-22T13:33:18;9.03;;;3.20;;
65096;SDS011;51686;46.758;4.356;2023-06-22T13:36:07;10.32;;;3.28;;
65096;SDS011;51686;46.758;4.356;2023-06-22T13:38:55;8.02;;;2.97;;
65096;SDS011;51686;46.758;4.356;2023-06-22T13:41:42;8.10;;;3.40;;
65096;SDS011;51686;46.758;4.356;2023-06-22T13:44:32;8.93;;;3.05;;
65096;SDS011;51686;46.758;4.356;2023-06-22T13:47:22;8.60;;;3.58;;
65096;SDS011;51686;46.758;4.356;2023-06-22T13:50:16;9.98;;;3.60;;
65096;SDS011;51686;46.758;4.356;2023-06-22T13:53:07;7.65;;;3.15;;
65096;SDS011;51686;46.758;4.356;2023-06-22T13:55:59;9.90;;;3.45;;
65096;SDS011;51686;46.758;4.356;2023-06-22T13:58:46;7.90;;;3.17;;
65096;SDS011;51686;46.758;4.356;2023-06-22T14:01:33;9.00;;;3.20;;
65096;SDS011;51686;46.758;4.356;2023-06-22T14:04:21;8.70;;;3.23;;
65096;SDS011;51686;46.758;4.356;2023-06-22T14:07:09;8.15;;;3.10;;
65096;SDS011;51686;46.758;4.356;2023-06-22T14:09:56;8.37;;;3.07;;
65096;SDS011;51686;46.758;4.356;2023-06-22T14:12:44;9.18;;;3.55;;
65096;SDS011;51686;46.758;4.356;2023-06-22T14:15:32;8.07;;;3.17;;
65096;SDS011;51686;46.758;4.356;2023-06-22T14:18:19;7.72;;;3.30;;
65096;SDS011;51686;46.758;4.356;2023-06-22T14:21:07;8.53;;;3.10;;
65096;SDS011;51686;46.758;4.356;2023-06-22T14:26:41;8.60;;;3.20;;
65096;SDS011;51686;46.758;4.356;2023-06-22T14:29:27;8.67;;;3.20;;
65096;SDS011;51686;46.758;4.356;2023-06-22T14:32:14;8.85;;;3.40;;
65096;SDS011;51686;46.758;4.356;2023-06-22T14:35:01;7.20;;;3.28;;
65096;SDS011;51686;46.758;4.356;2023-06-22T14:37:48;9.40;;;3.42;;
65096;SDS011;51686;46.758;4.356;2023-06-22T14:40:36;7.75;;;3.13;;
65096;SDS011;51686;46.758;4.356;2023-06-22T14:43:43;10.18;;;3.40;;
65096;SDS011;51686;46.758;4.356;2023-06-22T14:46:35;8.60;;;3.40;;
65096;SDS011;51686;46.758;4.356;2023-06-22T14:49:22;7.18;;;2.95;;
65096;SDS011;51686;46.758;4.356;2023-06-22T14:52:09;8.30;;;3.10;;
65096;SDS011;51686;46.758;4.356;2023-06-22T14:54:56;8.52;;;3.15;;
65096;SDS011;51686;46.758;4.356;2023-06-22T14:57:43;8.17;;;3.23;;
65096;SDS011;51686;46.758;4.356;2023-06-22T15:00:30;8.50;;;3.50;;
65096;SDS011;51686;46.758;4.356;2023-06-22T15:03:17;8.43;;;3.30;;
65096;SDS011;51686;46.758;4.356;2023-06-22T15:06:09;7.63;;;3.00;;
65096;SDS011;51686;46.758;4.356;2023-06-22T15:08:56;8.18;;;3.35;;
65096;SDS011;51686;46.758;4.356;2023-06-22T15:11:43;8.30;;;3.50;;
65096;SDS011;51686;46.758;4.356;2023-06-22T15:14:30;9.68;;;3.33;;
65096;SDS011;51686;46.758;4.356;2023-06-22T15:17:17;8.30;;;3.60;;
65096;SDS011;51686;46.758;4.356;2023-06-22T15:20:04;10.60;;;3.70;;
65096;SDS011;51686;46.758;4.356;2023-06-22T15:22:52;9.02;;;3.38;;
65096;SDS011;51686;46.758;4.356;2023-06-22T15:25:38;8.85;;;3.55;;
65096;SDS011;51686;46.758;4.356;2023-06-22T15:28:28;8.10;;;3.50;;
65096;SDS011;51686;46.758;4.356;2023-06-22T15:31:15;7.75;;;3.03;;
65096;SDS011;51686;46.758;4.356;2023-06-22T15:34:02;7.87;;;3.10;;
65096;SDS011;51686;46.758;4.356;2023-06-22T15:36:50;8.10;;;3.08;;
65096;SDS011;51686;46.758;4.356;2023-06-22T15:39:38;7.63;;;3.30;;
65096;SDS011;51686;46.758;4.356;2023-06-22T15:42:25;7.80;;;3.10;;
65096;SDS011;51686;46.758;4.356;2023-06-22T15:45:12;8.15;;;3.17;;
65096;SDS011;51686;46.758;4.356;2023-06-22T15:47:59;7.45;;;2.95;;
65096;SDS011;51686;46.758;4.356;2023-06-22T15:50:46;7.33;;;3.20;;
65096;SDS011;51686;46.758;4.356;2023-06-22T15:53:33;8.40;;;3.20;;
65096;SDS011;51686;46.758;4.356;2023-06-22T15:56:26;7.70;;;2.90;;
65096;SDS011;51686;46.758;4.356;2023-06-22T15:59:13;7.10;;;3.10;;
65096;SDS011;51686;46.758;4.356;2023-06-22T16:02:00;6.72;;;2.75;;
65096;SDS011;51686;46.758;4.356;2023-06-22T16:04:47;7.25;;;2.97;;
65096;SDS011;51686;46.758;4.356;2023-06-22T16:07:35;8.43;;;2.97;;
65096;SDS011;51686;46.758;4.356;2023-06-22T16:13:09;5.55;;;2.30;;
65096;SDS011;51686;46.758;4.356;2023-06-22T16:15:56;6.67;;;2.80;;
65096;SDS011;51686;46.758;4.356;2023-06-22T16:18:43;8.07;;;2.60;;
65096;SDS011;51686;46.758;4.356;2023-06-22T16:21:30;8.23;;;3.27;;
65096;SDS011;51686;46.758;4.356;2023-06-22T16:24:17;7.87;;;2.70;;
65096;SDS011;51686;46.758;4.356;2023-06-22T16:27:04;7.03;;;2.70;;
65096;SDS011;51686;46.758;4.356;2023-06-22T16:29:51;6.38;;;2.63;;
65096;SDS011;51686;46.758;4.356;2023-06-22T16:32:38;6.82;;;2.70;;
65096;SDS011;51686;46.758;4.356;2023-06-22T16:35:25;8.40;;;2.97;;
65096;SDS011;51686;46.758;4.356;2023-06-22T16:38:12;7.40;;;2.88;;
65096;SDS011;51686;46.758;4.356;2023-06-22T16:40:59;8.27;;;3.20;;
65096;SDS011;51686;46.758;4.356;2023-06-22T16:46:34;11.45;;;3.22;;
65096;SDS011;51686;46.758;4.356;2023-06-22T16:49:21;7.50;;;2.90;;
65096;SDS011;51686;46.758;4.356;2023-06-22T16:52:08;9.57;;;3.97;;
65096;SDS011;51686;46.758;4.356;2023-06-22T16:54:55;9.13;;;3.37;;
65096;SDS011;51686;46.758;4.356;2023-06-22T16:57:48;8.50;;;3.65;;
65096;SDS011;51686;46.758;4.356;2023-06-22T17:00:36;10.52;;;3.42;;
65096;SDS011;51686;46.758;4.356;2023-06-22T17:03:30;9.57;;;3.72;;
65096;SDS011;51686;46.758;4.356;2023-06-22T17:06:20;12.40;;;3.90;;
65096;SDS011;51686;46.758;4.356;2023-06-22T17:09:07;11.20;;;4.30;;